createdAt,value
2018-09-08T00:02:27.531Z,13.83
2018-09-08T00:04:55.199Z,13.74
2018-09-08T00:07:28.390Z,13.88
2018-09-08T00:09:56.074Z,13.79
2018-09-08T00:12:23.745Z,13.84
2018-09-08T00:14:50.795Z,13.80
2018-09-08T00:17:24.268Z,13.81
2018-09-08T00:19:57.393Z,13.86
2018-09-08T00:22:30.522Z,13.83
2018-09-08T00:25:03.652Z,13.83
2018-09-08T00:27:36.816Z,13.92
2018-09-08T00:30:12.716Z,13.96
2018-09-08T00:32:40.745Z,13.99
2018-09-08T00:35:08.413Z,13.90
2018-09-08T00:37:36.065Z,13.86
2018-09-08T00:40:03.837Z,13.99
2018-09-08T00:42:31.488Z,13.95
2018-09-08T00:44:59.510Z,13.96
2018-09-08T00:47:27.156Z,13.89
2018-09-08T00:49:55.105Z,13.79
2018-09-08T00:52:22.791Z,13.82
2018-09-08T00:54:50.445Z,13.93
2018-09-08T00:57:18.123Z,13.93
2018-09-08T00:59:45.812Z,13.92
2018-09-08T01:02:13.464Z,13.97
2018-09-08T01:04:41.277Z,13.98
2018-09-08T01:07:13.502Z,13.95
2018-09-08T01:09:41.149Z,13.93
2018-09-08T01:12:08.818Z,13.84
2018-09-08T01:14:36.449Z,13.99
2018-09-08T01:17:04.096Z,13.96
2018-09-08T01:19:31.836Z,13.92
2018-09-08T01:21:59.498Z,13.90
2018-09-08T01:24:27.158Z,13.91
2018-09-08T01:26:54.846Z,13.97
2018-09-08T01:29:22.516Z,14.02
2018-09-08T01:31:50.173Z,13.96
2018-09-08T01:34:17.834Z,14.08
2018-09-08T01:36:45.736Z,13.97
2018-09-08T01:39:13.406Z,14.06
2018-09-08T01:41:41.110Z,14.08
2018-09-08T01:44:08.754Z,14.05
2018-09-08T01:46:36.398Z,14.10
2018-09-08T01:49:04.068Z,14.16
2018-09-08T01:51:31.715Z,14.09
2018-09-08T01:53:59.401Z,14.06
2018-09-08T01:56:27.058Z,14.15
2018-09-08T01:58:54.718Z,14.05
2018-09-08T02:01:22.368Z,14.00
2018-09-08T02:03:50.016Z,14.00
2018-09-08T02:06:17.687Z,14.03
2018-09-08T02:08:45.370Z,14.04
2018-09-08T02:11:13.025Z,14.06
2018-09-08T02:13:40.729Z,14.07
2018-09-08T02:16:08.405Z,14.17
2018-09-08T02:18:36.075Z,14.10
2018-09-08T02:21:03.753Z,14.10
2018-09-08T02:23:31.590Z,14.04
2018-09-08T02:26:01.034Z,14.09
2018-09-08T02:28:28.682Z,13.85
2018-09-08T02:30:56.341Z,14.08
2018-09-08T02:33:24.011Z,14.13
2018-09-08T02:35:51.684Z,14.01
2018-09-08T02:38:19.361Z,14.16
2018-09-08T02:40:47.085Z,14.02
2018-09-08T02:43:14.752Z,14.08
2018-09-08T02:45:42.403Z,14.10
2018-09-08T02:48:10.046Z,14.08
2018-09-08T02:50:38.413Z,14.02
2018-09-08T02:53:05.813Z,13.91
2018-09-08T02:55:32.944Z,14.09
2018-09-08T02:57:59.602Z,14.13
2018-09-08T03:00:26.626Z,14.11
2018-09-08T03:02:53.209Z,14.08
2018-09-08T03:05:19.788Z,14.04
2018-09-08T03:07:46.338Z,14.13
2018-09-08T03:10:13.245Z,13.99
2018-09-08T03:12:39.707Z,14.13
2018-09-08T03:15:06.195Z,14.17
2018-09-08T03:17:32.681Z,13.78
2018-09-08T03:19:59.110Z,14.17
2018-09-08T03:22:25.538Z,14.09
2018-09-08T03:24:51.973Z,14.17
2018-09-08T03:27:18.583Z,14.22
2018-09-08T03:29:45.008Z,14.21
2018-09-08T03:32:11.626Z,14.13
2018-09-08T03:34:38.054Z,14.19
2018-09-08T03:37:04.536Z,14.17
2018-09-08T03:39:30.985Z,14.14
2018-09-08T03:41:57.413Z,14.19
2018-09-08T03:44:23.899Z,14.09
2018-09-08T03:46:50.329Z,14.15
2018-09-08T03:49:16.770Z,14.10
2018-09-08T03:51:43.234Z,14.11
2018-09-08T03:54:09.693Z,14.12
2018-09-08T03:56:36.126Z,14.06
2018-09-08T03:59:02.667Z,14.07
2018-09-08T04:01:29.147Z,14.05
2018-09-08T04:03:56.905Z,14.07
2018-09-08T04:06:24.598Z,14.06
2018-09-08T04:08:52.270Z,14.13
2018-09-08T04:11:19.963Z,14.12
2018-09-08T04:13:47.621Z,14.16
2018-09-08T04:16:15.261Z,14.16
2018-09-08T04:18:42.909Z,14.08
2018-09-08T04:21:10.580Z,14.03
2018-09-08T04:23:38.243Z,14.08
2018-09-08T04:26:06.414Z,14.13
2018-09-08T04:28:34.062Z,14.14
2018-09-08T04:31:02.691Z,14.08
2018-09-08T04:33:30.412Z,14.02
2018-09-08T04:35:58.116Z,14.03
2018-09-08T04:38:25.799Z,14.05
2018-09-08T04:40:53.491Z,14.03
2018-09-08T04:43:21.150Z,14.08
2018-09-08T04:45:52.315Z,14.09
2018-09-08T04:48:19.987Z,14.02
2018-09-08T04:50:47.634Z,14.07
2018-09-08T04:53:15.332Z,14.12
2018-09-08T04:55:42.977Z,14.11
2018-09-08T04:58:10.617Z,14.09
2018-09-08T05:00:38.482Z,14.20
2018-09-08T05:03:06.305Z,14.21
2018-09-08T05:05:33.957Z,14.30
2018-09-08T05:08:01.678Z,14.15
2018-09-08T05:10:29.338Z,14.22
2018-09-08T05:12:57.004Z,13.46
2018-09-08T05:15:24.654Z,14.15
2018-09-08T05:17:52.316Z,14.23
2018-09-08T05:20:19.970Z,14.29
2018-09-08T05:22:47.638Z,14.19
2018-09-08T05:25:15.273Z,14.18
2018-09-08T05:27:42.945Z,14.25
2018-09-08T05:30:10.609Z,14.25
2018-09-08T05:32:38.269Z,14.12
2018-09-08T05:35:06.407Z,14.30
2018-09-08T05:37:34.023Z,14.29
2018-09-08T05:40:01.685Z,14.20
2018-09-08T05:42:29.365Z,14.32
2018-09-08T05:44:57.011Z,14.30
2018-09-08T05:47:24.649Z,14.16
2018-09-08T05:49:52.289Z,14.26
2018-09-08T05:52:19.978Z,14.28
2018-09-08T05:54:47.627Z,14.12
2018-09-08T05:57:15.300Z,14.16
2018-09-08T05:59:42.995Z,14.27
2018-09-08T06:02:10.783Z,14.08
2018-09-08T06:04:38.439Z,14.22
2018-09-08T06:07:06.233Z,14.12
2018-09-08T06:09:34.769Z,14.29
2018-09-08T06:12:02.419Z,14.19
2018-09-08T06:14:31.218Z,14.23
2018-09-08T06:16:59.090Z,14.33
2018-09-08T06:19:26.750Z,14.37
2018-09-08T06:21:54.441Z,14.36
2018-09-08T06:24:22.164Z,14.25
2018-09-08T06:26:49.857Z,14.42
2018-09-08T06:29:17.983Z,14.33
2018-09-08T06:31:46.130Z,14.29
2018-09-08T06:34:13.828Z,14.26
2018-09-08T06:36:41.540Z,14.32
2018-09-08T06:39:15.915Z,14.29
2018-09-08T06:41:43.955Z,14.35
2018-09-08T06:44:11.657Z,14.35
2018-09-08T06:46:39.383Z,14.39
2018-09-08T06:49:07.050Z,14.50
2018-09-08T06:51:35.641Z,14.49
2018-09-08T06:54:03.550Z,14.49
2018-09-08T06:56:31.301Z,14.48
2018-09-08T06:58:59.326Z,14.45
2018-09-08T07:01:27.164Z,14.42
2018-09-08T07:03:54.831Z,14.49
2018-09-08T07:06:22.496Z,14.44
2018-09-08T07:08:50.166Z,14.48
2018-09-08T07:11:17.801Z,14.42
2018-09-08T07:13:45.526Z,14.53
2018-09-08T07:16:13.172Z,14.41
2018-09-08T07:18:40.793Z,14.43
2018-09-08T07:21:08.500Z,14.52
2018-09-08T07:23:36.207Z,14.54
2018-09-08T07:26:04.046Z,14.57
2018-09-08T07:28:32.465Z,14.52
2018-09-08T07:31:00.151Z,14.54
2018-09-08T07:33:28.209Z,14.58
2018-09-08T07:35:55.921Z,14.61
2018-09-08T07:38:24.425Z,14.53
2018-09-08T07:40:52.358Z,14.57
2018-09-08T07:43:20.068Z,14.54
2018-09-08T07:45:47.848Z,14.59
2018-09-08T07:48:15.541Z,14.49
2018-09-08T07:50:43.257Z,14.63
2018-09-08T07:53:11.023Z,14.63
2018-09-08T07:55:38.711Z,14.56
2018-09-08T07:58:06.386Z,14.60
2018-09-08T08:00:34.105Z,14.58
2018-09-08T08:03:01.802Z,14.55
2018-09-08T08:05:29.470Z,14.66
2018-09-08T08:07:57.153Z,14.64
2018-09-08T08:10:24.873Z,14.69
2018-09-08T08:12:53.434Z,14.68
2018-09-08T08:15:21.232Z,14.64
2018-09-08T08:17:48.908Z,14.68
2018-09-08T08:20:16.591Z,14.77
2018-09-08T08:22:44.280Z,14.78
2018-09-08T08:25:11.946Z,14.68
2018-09-08T08:27:39.655Z,14.73
2018-09-08T08:30:07.393Z,14.78
2018-09-08T08:32:35.085Z,14.79
2018-09-08T08:35:02.813Z,14.73
2018-09-08T08:37:30.810Z,14.84
2018-09-08T08:39:58.520Z,14.81
2018-09-08T08:42:26.217Z,14.82
2018-09-08T08:44:53.891Z,14.90
2018-09-08T08:47:21.622Z,14.90
2018-09-08T08:50:00.368Z,14.88
2018-09-08T08:52:39.283Z,14.95
2018-09-08T08:55:05.731Z,14.98
2018-09-08T08:57:33.412Z,15.01
2018-09-08T09:00:01.092Z,14.98
2018-09-08T09:02:28.785Z,15.04
2018-09-08T09:04:56.472Z,15.03
2018-09-08T09:07:24.177Z,15.07
2018-09-08T09:09:51.865Z,15.08
2018-09-08T09:12:19.553Z,15.10
2018-09-08T09:14:47.255Z,15.11
2018-09-08T09:17:14.937Z,15.15
2018-09-08T09:19:53.749Z,15.15
2018-09-08T09:22:32.365Z,15.19
2018-09-08T09:25:05.685Z,15.24
2018-09-08T09:27:34.720Z,15.28
2018-09-08T09:30:02.726Z,15.32
2018-09-08T09:32:30.409Z,15.33
2018-09-08T09:34:58.116Z,15.37
2018-09-08T09:37:25.896Z,15.39
2018-09-08T09:39:54.987Z,15.42
2018-09-08T09:42:22.705Z,15.44
2018-09-08T09:44:50.402Z,15.48
2018-09-08T09:47:18.171Z,15.51
2018-09-08T09:49:45.894Z,15.54
2018-09-08T09:52:13.606Z,15.57
2018-09-08T09:54:41.307Z,15.61
2018-09-08T09:57:09.012Z,15.62
2018-09-08T09:59:36.707Z,15.63
2018-09-08T10:02:13.173Z,15.65
2018-09-08T10:04:40.958Z,15.68
2018-09-08T10:07:09.605Z,15.70
2018-09-08T10:09:38.557Z,15.74
2018-09-08T10:12:06.402Z,15.74
2018-09-08T10:14:34.101Z,15.80
2018-09-08T10:17:01.826Z,15.81
2018-09-08T10:19:29.522Z,15.81
2018-09-08T10:21:57.252Z,15.83
2018-09-08T10:24:24.969Z,15.85
2018-09-08T10:26:52.682Z,15.85
2018-09-08T10:29:20.361Z,15.85
2018-09-08T10:31:48.069Z,15.68
2018-09-08T10:34:15.762Z,15.93
2018-09-08T10:36:43.443Z,15.93
2018-09-08T10:39:11.124Z,15.96
2018-09-08T10:41:38.800Z,15.96
2018-09-08T10:44:06.537Z,15.99
2018-09-08T10:46:34.227Z,16.00
2018-09-08T10:49:01.931Z,15.99
2018-09-08T10:51:46.478Z,15.99
2018-09-08T10:54:14.236Z,16.02
2018-09-08T10:56:41.934Z,16.01
2018-09-08T10:59:09.599Z,16.02
2018-09-08T11:01:37.309Z,16.02
2018-09-08T11:04:05.334Z,16.06
2018-09-08T11:06:33.133Z,16.06
2018-09-08T11:09:00.824Z,16.09
2018-09-08T11:11:28.550Z,16.08
2018-09-08T11:13:56.747Z,16.10
2018-09-08T11:16:24.457Z,16.13
2018-09-08T11:18:52.245Z,16.12
2018-09-08T11:21:19.913Z,16.13
2018-09-08T11:23:47.602Z,16.15
2018-09-08T11:26:15.313Z,16.17
2018-09-08T11:28:43.007Z,16.19
2018-09-08T11:31:10.790Z,16.22
2018-09-08T11:33:38.498Z,16.24
2018-09-08T11:36:06.257Z,16.27
2018-09-08T11:38:34.009Z,16.31
2018-09-08T11:41:01.748Z,16.30
2018-09-08T11:43:29.436Z,16.33
2018-09-08T11:45:57.158Z,16.35
2018-09-08T11:48:24.842Z,16.36
2018-09-08T11:50:52.577Z,16.37
2018-09-08T11:53:20.265Z,16.41
2018-09-08T11:55:47.948Z,16.43
2018-09-08T11:58:15.640Z,16.42
2018-09-08T12:00:43.317Z,16.46
2018-09-08T12:03:11.023Z,16.47
2018-09-08T12:05:38.725Z,16.50
2018-09-08T12:08:06.442Z,16.52
2018-09-08T12:10:34.212Z,16.53
2018-09-08T12:13:01.858Z,16.55
2018-09-08T12:15:29.585Z,16.58
2018-09-08T12:17:57.278Z,16.60
2018-09-08T12:20:24.961Z,16.63
2018-09-08T12:22:52.654Z,16.65
2018-09-08T12:25:20.340Z,16.68
2018-09-08T12:27:48.035Z,16.68
2018-09-08T12:30:15.727Z,16.68
2018-09-08T12:32:43.398Z,16.69
2018-09-08T12:35:11.062Z,16.72
2018-09-08T12:37:38.734Z,16.75
2018-09-08T12:40:06.449Z,16.77
2018-09-08T12:42:34.262Z,16.82
2018-09-08T12:45:02.110Z,16.84
2018-09-08T12:47:29.802Z,16.87
2018-09-08T12:49:57.493Z,16.90
2018-09-08T12:52:25.165Z,16.93
2018-09-08T12:54:52.859Z,16.93
2018-09-08T12:57:20.556Z,16.96
2018-09-08T12:59:48.343Z,16.99
2018-09-08T13:02:16.046Z,17.01
2018-09-08T13:04:43.810Z,17.02
2018-09-08T13:07:11.744Z,17.05
2018-09-08T13:09:39.462Z,17.08
2018-09-08T13:12:07.200Z,17.09
2018-09-08T13:14:34.925Z,17.12
2018-09-08T13:17:02.650Z,17.14
2018-09-08T13:19:30.347Z,17.14
2018-09-08T13:21:58.048Z,17.16
2018-09-08T13:24:25.803Z,17.18
2018-09-08T13:26:53.496Z,17.18
2018-09-08T13:29:21.261Z,17.19
2018-09-08T13:31:48.970Z,17.19
2018-09-08T13:34:16.963Z,17.19
2018-09-08T13:36:44.666Z,17.19
2018-09-08T13:39:12.325Z,17.20
2018-09-08T13:41:40.000Z,17.20
2018-09-08T13:44:07.769Z,17.21
2018-09-08T13:46:35.578Z,17.22
2018-09-08T13:49:03.310Z,17.25
2018-09-08T13:51:31.002Z,17.27
2018-09-08T13:53:58.670Z,17.24
2018-09-08T13:56:26.354Z,17.28
2018-09-08T13:58:54.484Z,17.30
2018-09-08T14:01:22.185Z,17.33
2018-09-08T14:03:49.888Z,17.34
2018-09-08T14:06:17.526Z,17.32
2018-09-08T14:08:45.197Z,17.33
2018-09-08T14:11:12.857Z,17.34
2018-09-08T14:13:40.538Z,17.33
2018-09-08T14:16:08.228Z,17.33
2018-09-08T14:18:35.914Z,17.34
2018-09-08T14:21:03.601Z,17.30
2018-09-08T14:23:31.272Z,17.26
2018-09-08T14:25:58.953Z,17.29
2018-09-08T14:28:26.662Z,17.34
2018-09-08T14:30:54.297Z,17.32
2018-09-08T14:33:21.984Z,17.28
2018-09-08T14:35:49.630Z,17.23
2018-09-08T14:38:17.808Z,17.28
2018-09-08T14:40:45.574Z,17.31
2018-09-08T14:43:13.254Z,17.32
2018-09-08T14:45:40.926Z,17.25
2018-09-08T14:48:08.586Z,17.22
2018-09-08T14:50:36.266Z,17.28
2018-09-08T14:53:03.958Z,17.25
2018-09-08T14:55:31.645Z,17.27
2018-09-08T14:57:59.365Z,17.26
2018-09-08T15:00:27.051Z,17.24
2018-09-08T15:02:54.740Z,17.26
2018-09-08T15:05:22.391Z,17.26
2018-09-08T15:07:50.748Z,17.26
2018-09-08T15:10:18.417Z,17.22
2018-09-08T15:12:46.089Z,17.20
2018-09-08T15:15:13.739Z,17.22
2018-09-08T15:17:41.417Z,17.23
2018-09-08T15:20:09.082Z,17.21
2018-09-08T15:22:36.744Z,17.25
2018-09-08T15:25:04.470Z,17.25
2018-09-08T15:27:32.128Z,17.22
2018-09-08T15:29:59.791Z,17.23
2018-09-08T15:32:27.471Z,17.20
2018-09-08T15:34:55.142Z,17.27
2018-09-08T15:37:22.806Z,17.20
2018-09-08T15:39:50.524Z,17.24
2018-09-08T15:42:18.297Z,17.19
2018-09-08T15:44:46.035Z,17.23
2018-09-08T15:47:13.752Z,17.23
2018-09-08T15:49:41.524Z,17.26
2018-09-08T15:52:10.909Z,17.29
2018-09-08T15:54:38.620Z,17.23
2018-09-08T15:57:06.324Z,17.24
2018-09-08T15:59:34.020Z,17.29
2018-09-08T16:02:01.732Z,17.21
2018-09-08T16:04:29.599Z,17.29
2018-09-08T16:06:57.238Z,17.26
2018-09-08T16:09:24.882Z,17.27
2018-09-08T16:11:52.548Z,17.30
2018-09-08T16:14:20.236Z,17.28
2018-09-08T16:16:47.918Z,17.27
2018-09-08T16:19:15.583Z,17.31
2018-09-08T16:21:43.260Z,17.30
2018-09-08T16:24:10.979Z,17.24
2018-09-08T16:26:38.600Z,17.28
2018-09-08T16:29:06.291Z,17.29
2018-09-08T16:31:34.015Z,17.28
2018-09-08T16:34:01.762Z,17.21
2018-09-08T16:36:29.426Z,17.21
2018-09-08T16:38:57.081Z,17.24
2018-09-08T16:41:24.766Z,17.22
2018-09-08T16:43:52.418Z,17.21
2018-09-08T16:46:20.150Z,17.21
2018-09-08T16:48:47.833Z,17.25
2018-09-08T16:51:15.526Z,17.27
2018-09-08T16:53:43.169Z,17.26
2018-09-08T16:56:11.049Z,17.21
2018-09-08T16:58:38.777Z,17.23
2018-09-08T17:01:06.504Z,17.20
2018-09-08T17:03:34.192Z,17.16
2018-09-08T17:06:01.930Z,17.15
2018-09-08T17:08:29.569Z,17.19
2018-09-08T17:10:57.253Z,17.20
2018-09-08T17:13:26.327Z,17.14
2018-09-08T17:15:54.002Z,17.13
2018-09-08T17:18:21.692Z,17.07
2018-09-08T17:20:49.358Z,17.11
2018-09-08T17:23:17.081Z,17.07
2018-09-08T17:25:44.756Z,17.13
2018-09-08T17:28:12.544Z,17.11
2018-09-08T17:30:40.228Z,17.09
2018-09-08T17:33:07.928Z,17.16
2018-09-08T17:35:35.672Z,17.09
2018-09-08T17:38:03.487Z,17.04
2018-09-08T17:40:31.212Z,17.08
2018-09-08T17:42:59.175Z,17.09
2018-09-08T17:45:26.915Z,17.05
2018-09-08T17:47:54.611Z,17.08
2018-09-08T17:50:22.594Z,17.08
2018-09-08T17:52:50.660Z,17.10
2018-09-08T17:55:18.353Z,17.03
2018-09-08T17:57:46.078Z,17.10
2018-09-08T18:00:13.931Z,16.90
2018-09-08T18:02:42.130Z,17.09
2018-09-08T18:05:10.323Z,17.03
2018-09-08T18:07:38.053Z,16.92
2018-09-08T18:10:06.481Z,16.93
2018-09-08T18:12:34.144Z,16.92
2018-09-08T18:15:01.824Z,16.95
2018-09-08T18:17:29.597Z,16.87
2018-09-08T18:19:57.192Z,16.96
2018-09-08T18:22:24.862Z,16.96
2018-09-08T18:24:52.533Z,16.92
2018-09-08T18:27:20.196Z,16.82
2018-09-08T18:29:47.861Z,16.82
2018-09-08T18:32:15.542Z,16.91
2018-09-08T18:34:43.191Z,16.94
2018-09-08T18:37:10.859Z,16.86
2018-09-08T18:39:38.588Z,16.85
2018-09-08T18:42:06.273Z,16.90
2018-09-08T18:44:34.071Z,16.85
2018-09-08T18:47:01.753Z,16.81
2018-09-08T18:49:29.418Z,16.76
2018-09-08T18:51:57.182Z,16.67
2018-09-08T18:54:24.866Z,16.73
2018-09-08T18:56:52.561Z,16.77
2018-09-08T18:59:20.242Z,16.75
2018-09-08T19:01:47.918Z,16.80
2018-09-08T19:04:15.855Z,16.74
2018-09-08T19:06:43.624Z,16.75
2018-09-08T19:09:11.293Z,16.71
2018-09-08T19:11:38.988Z,16.73
2018-09-08T19:14:11.213Z,16.81
2018-09-08T19:16:38.892Z,16.77
2018-09-08T19:19:06.681Z,16.78
2018-09-08T19:21:34.359Z,16.77
2018-09-08T19:24:07.583Z,16.71
2018-09-08T19:26:35.279Z,16.77
2018-09-08T19:29:08.491Z,16.66
2018-09-08T19:31:36.192Z,16.71
2018-09-08T19:34:03.870Z,16.79
2018-09-08T19:36:31.530Z,16.74
2018-09-08T19:38:59.195Z,16.71
2018-09-08T19:41:26.894Z,16.64
2018-09-08T19:43:54.568Z,16.72
2018-09-08T19:46:27.625Z,16.61
2018-09-08T19:48:55.312Z,16.67
2018-09-08T19:51:23.035Z,16.55
2018-09-08T19:53:56.472Z,16.59
2018-09-08T19:56:29.610Z,16.42
2018-09-08T19:58:58.653Z,16.54
2018-09-08T20:01:26.544Z,16.54
2018-09-08T20:03:54.978Z,16.53
2018-09-08T20:06:22.666Z,16.61
2018-09-08T20:08:50.360Z,16.49
2018-09-08T20:11:18.107Z,16.51
2018-09-08T20:13:45.759Z,16.37
2018-09-08T20:16:13.701Z,16.38
2018-09-08T20:18:41.441Z,16.47
2018-09-08T20:21:09.098Z,16.44
2018-09-08T20:23:36.740Z,16.51
2018-09-08T20:26:04.482Z,16.56
2018-09-08T20:28:32.135Z,16.41
2018-09-08T20:30:59.846Z,16.46
2018-09-08T20:33:27.668Z,16.33
2018-09-08T20:35:55.416Z,16.32
2018-09-08T20:38:23.357Z,16.42
2018-09-08T20:40:51.002Z,16.33
2018-09-08T20:43:18.651Z,16.33
2018-09-08T20:45:46.625Z,16.46
2018-09-08T20:48:14.262Z,16.41
2018-09-08T20:50:41.929Z,16.46
2018-09-08T20:53:09.575Z,16.45
2018-09-08T20:55:37.262Z,16.42
2018-09-08T20:58:04.995Z,16.46
2018-09-08T21:00:32.649Z,16.47
2018-09-08T21:03:00.308Z,16.47
2018-09-08T21:05:28.003Z,16.52
2018-09-08T21:07:55.646Z,16.51
2018-09-08T21:10:23.314Z,16.46
2018-09-08T21:12:51.072Z,16.45
2018-09-08T21:15:18.741Z,16.51
2018-09-08T21:17:46.418Z,16.40
2018-09-08T21:20:14.114Z,16.50
2018-09-08T21:22:41.790Z,16.48
2018-09-08T21:25:09.762Z,16.50
2018-09-08T21:27:37.500Z,16.45
2018-09-08T21:30:05.250Z,16.36
2018-09-08T21:32:33.189Z,16.39
2018-09-08T21:35:00.843Z,16.39
2018-09-08T21:37:28.564Z,16.30
2018-09-08T21:39:56.224Z,16.37
2018-09-08T21:42:23.895Z,16.42
2018-09-08T21:44:51.562Z,16.49
2018-09-08T21:47:19.222Z,16.52
2018-09-08T21:49:46.913Z,16.56
2018-09-08T21:52:14.735Z,16.56
2018-09-08T21:54:42.423Z,16.57
2018-09-08T21:57:10.089Z,16.41
2018-09-08T21:59:38.049Z,16.50
2018-09-08T22:02:05.723Z,16.41
2018-09-08T22:04:33.364Z,16.47
2018-09-08T22:07:01.098Z,16.57
2018-09-08T22:09:28.749Z,16.52
2018-09-08T22:11:56.412Z,16.57
2018-09-08T22:14:24.079Z,16.60
2018-09-08T22:16:51.757Z,16.58
2018-09-08T22:19:19.395Z,16.63
2018-09-08T22:21:47.084Z,16.52
2018-09-08T22:24:14.734Z,16.60
2018-09-08T22:26:42.972Z,16.55
2018-09-08T22:29:10.631Z,16.48
2018-09-08T22:31:38.355Z,16.49
2018-09-08T22:34:06.028Z,16.52
2018-09-08T22:36:33.693Z,16.55
2018-09-08T22:39:01.354Z,16.51
2018-09-08T22:41:29.008Z,16.45
2018-09-08T22:43:56.664Z,16.45
2018-09-08T22:46:24.318Z,16.41
2018-09-08T22:48:51.964Z,16.51
2018-09-08T22:51:19.683Z,16.48
2018-09-08T22:53:47.293Z,16.49
2018-09-08T22:56:14.975Z,16.54
2018-09-08T22:58:42.617Z,16.48
2018-09-08T23:01:10.641Z,16.57
2018-09-08T23:03:38.280Z,16.58
2018-09-08T23:06:05.995Z,16.55
2018-09-08T23:08:34.084Z,16.57
2018-09-08T23:11:01.749Z,16.53
2018-09-08T23:13:29.413Z,16.59
2018-09-08T23:15:57.172Z,16.55
2018-09-08T23:18:24.909Z,16.62
2018-09-08T23:20:52.559Z,16.58
2018-09-08T23:23:20.306Z,16.61
2018-09-08T23:25:47.952Z,16.59
2018-09-08T23:28:15.620Z,16.58
2018-09-08T23:30:43.284Z,16.56
2018-09-08T23:33:10.941Z,16.55
2018-09-08T23:35:38.599Z,16.58
2018-09-08T23:38:06.289Z,16.63
2018-09-08T23:40:34.024Z,16.57
2018-09-08T23:43:01.666Z,16.59
2018-09-08T23:45:29.316Z,16.56
2018-09-08T23:47:56.973Z,16.61
2018-09-08T23:50:24.682Z,16.66
2018-09-08T23:52:52.323Z,16.61
2018-09-08T23:55:19.995Z,16.61
2018-09-08T23:57:47.766Z,16.58
